sensor_id;sensor_type;location;lat;lon;timestamp;P1;durP1;ratioP1;P2;durP2;ratioP2
54945;SDS011;40846;44.788;20.486;2023-08-06T00:01:57;10.05;;;9.05;;
54945;SDS011;40846;44.788;20.486;2023-08-06T00:04:23;12.43;;;9.52;;
54945;SDS011;40846;44.788;20.486;2023-08-06T00:06:49;13.05;;;9.27;;
54945;SDS011;40846;44.788;20.486;2023-08-06T00:09:16;15.13;;;11.18;;
54945;SDS011;40846;44.788;20.486;2023-08-06T00:11:42;14.15;;;10.70;;
54945;SDS011;40846;44.788;20.486;2023-08-06T00:14:09;14.95;;;12.07;;
54945;SDS011;40846;44.788;20.486;2023-08-06T00:16:35;14.43;;;11.27;;
54945;SDS011;40846;44.788;20.486;2023-08-06T00:19:01;14.98;;;11.80;;
54945;SDS011;40846;44.788;20.486;2023-08-06T00:21:27;16.02;;;12.65;;
54945;SDS011;40846;44.788;20.486;2023-08-06T00:23:53;16.20;;;12.63;;
54945;SDS011;40846;44.788;20.486;2023-08-06T00:26:19;15.70;;;12.82;;
54945;SDS011;40846;44.788;20.486;2023-08-06T00:28:46;18.38;;;13.30;;
54945;SDS011;40846;44.788;20.486;2023-08-06T00:31:13;16.95;;;12.73;;
54945;SDS011;40846;44.788;20.486;2023-08-06T00:33:39;17.42;;;13.70;;
54945;SDS011;40846;44.788;20.486;2023-08-06T00:36:05;21.15;;;15.43;;
54945;SDS011;40846;44.788;20.486;2023-08-06T00:38:31;17.90;;;15.52;;
54945;SDS011;40846;44.788;20.486;2023-08-06T00:40:57;17.92;;;15.32;;
54945;SDS011;40846;44.788;20.486;2023-08-06T00:43:23;18.83;;;16.17;;
54945;SDS011;40846;44.788;20.486;2023-08-06T00:45:49;17.25;;;15.45;;
54945;SDS011;40846;44.788;20.486;2023-08-06T00:48:15;22.77;;;17.30;;
54945;SDS011;40846;44.788;20.486;2023-08-06T00:50:41;24.65;;;15.88;;
54945;SDS011;40846;44.788;20.486;2023-08-06T00:53:08;20.40;;;16.90;;
54945;SDS011;40846;44.788;20.486;2023-08-06T00:55:34;28.38;;;17.15;;
54945;SDS011;40846;44.788;20.486;2023-08-06T00:58:00;25.33;;;19.05;;
54945;SDS011;40846;44.788;20.486;2023-08-06T01:00:27;19.88;;;15.65;;
54945;SDS011;40846;44.788;20.486;2023-08-06T01:02:53;22.50;;;16.77;;
54945;SDS011;40846;44.788;20.486;2023-08-06T01:05:20;21.48;;;16.50;;
54945;SDS011;40846;44.788;20.486;2023-08-06T01:15:49;21.55;;;15.52;;
54945;SDS011;40846;44.788;20.486;2023-08-06T01:18:15;20.57;;;15.40;;
54945;SDS011;40846;44.788;20.486;2023-08-06T01:20:42;15.85;;;11.57;;
54945;SDS011;40846;44.788;20.486;2023-08-06T01:23:08;13.70;;;11.45;;
54945;SDS011;40846;44.788;20.486;2023-08-06T01:25:34;15.55;;;12.77;;
54945;SDS011;40846;44.788;20.486;2023-08-06T01:28:04;18.92;;;13.73;;
54945;SDS011;40846;44.788;20.486;2023-08-06T01:30:34;12.82;;;11.02;;
54945;SDS011;40846;44.788;20.486;2023-08-06T01:33:04;14.68;;;10.93;;
54945;SDS011;40846;44.788;20.486;2023-08-06T01:35:33;16.65;;;12.05;;
54945;SDS011;40846;44.788;20.486;2023-08-06T01:38:00;14.70;;;12.13;;
54945;SDS011;40846;44.788;20.486;2023-08-06T01:40:27;16.38;;;11.18;;
54945;SDS011;40846;44.788;20.486;2023-08-06T01:42:54;12.43;;;11.10;;
54945;SDS011;40846;44.788;20.486;2023-08-06T01:45:20;13.30;;;11.13;;
54945;SDS011;40846;44.788;20.486;2023-08-06T01:47:46;14.68;;;12.32;;
54945;SDS011;40846;44.788;20.486;2023-08-06T01:50:12;12.50;;;11.18;;
54945;SDS011;40846;44.788;20.486;2023-08-06T01:52:38;12.32;;;10.23;;
54945;SDS011;40846;44.788;20.486;2023-08-06T01:55:04;11.93;;;10.40;;
54945;SDS011;40846;44.788;20.486;2023-08-06T01:57:30;13.50;;;9.60;;
54945;SDS011;40846;44.788;20.486;2023-08-06T01:59:56;12.82;;;9.57;;
54945;SDS011;40846;44.788;20.486;2023-08-06T02:02:22;17.17;;;9.45;;
54945;SDS011;40846;44.788;20.486;2023-08-06T02:04:48;11.98;;;9.00;;
54945;SDS011;40846;44.788;20.486;2023-08-06T02:07:14;11.15;;;9.02;;
54945;SDS011;40846;44.788;20.486;2023-08-06T02:09:40;15.30;;;8.60;;
54945;SDS011;40846;44.788;20.486;2023-08-06T02:12:07;11.35;;;8.82;;
54945;SDS011;40846;44.788;20.486;2023-08-06T02:14:33;8.98;;;7.97;;
54945;SDS011;40846;44.788;20.486;2023-08-06T02:17:00;11.70;;;8.65;;
54945;SDS011;40846;44.788;20.486;2023-08-06T02:19:26;11.10;;;9.07;;
54945;SDS011;40846;44.788;20.486;2023-08-06T02:21:52;10.18;;;8.05;;
54945;SDS011;40846;44.788;20.486;2023-08-06T02:24:18;10.77;;;8.38;;
54945;SDS011;40846;44.788;20.486;2023-08-06T02:26:44;8.95;;;7.60;;
54945;SDS011;40846;44.788;20.486;2023-08-06T02:29:10;12.40;;;7.38;;
54945;SDS011;40846;44.788;20.486;2023-08-06T02:31:36;10.63;;;6.85;;
54945;SDS011;40846;44.788;20.486;2023-08-06T02:34:02;8.57;;;5.75;;
54945;SDS011;40846;44.788;20.486;2023-08-06T02:36:28;9.38;;;6.50;;
54945;SDS011;40846;44.788;20.486;2023-08-06T02:38:54;8.18;;;6.07;;
54945;SDS011;40846;44.788;20.486;2023-08-06T02:41:21;7.60;;;5.78;;
54945;SDS011;40846;44.788;20.486;2023-08-06T02:43:47;9.60;;;6.00;;
54945;SDS011;40846;44.788;20.486;2023-08-06T02:46:13;13.30;;;6.47;;
54945;SDS011;40846;44.788;20.486;2023-08-06T02:48:39;7.93;;;5.28;;
54945;SDS011;40846;44.788;20.486;2023-08-06T02:51:05;7.82;;;6.05;;
54945;SDS011;40846;44.788;20.486;2023-08-06T02:53:31;9.48;;;5.30;;
54945;SDS011;40846;44.788;20.486;2023-08-06T02:55:57;8.57;;;5.28;;
54945;SDS011;40846;44.788;20.486;2023-08-06T02:58:23;6.32;;;4.80;;
54945;SDS011;40846;44.788;20.486;2023-08-06T03:01:03;7.25;;;4.90;;
54945;SDS011;40846;44.788;20.486;2023-08-06T03:03:30;9.15;;;4.22;;
54945;SDS011;40846;44.788;20.486;2023-08-06T03:05:56;6.00;;;4.25;;
54945;SDS011;40846;44.788;20.486;2023-08-06T03:08:22;8.50;;;4.85;;
54945;SDS011;40846;44.788;20.486;2023-08-06T03:10:49;6.93;;;4.38;;
54945;SDS011;40846;44.788;20.486;2023-08-06T03:13:16;9.43;;;4.40;;
54945;SDS011;40846;44.788;20.486;2023-08-06T03:15:42;8.93;;;4.55;;
54945;SDS011;40846;44.788;20.486;2023-08-06T03:18:08;6.43;;;4.10;;
54945;SDS011;40846;44.788;20.486;2023-08-06T03:20:34;9.05;;;5.13;;
54945;SDS011;40846;44.788;20.486;2023-08-06T03:23:00;9.00;;;3.92;;
54945;SDS011;40846;44.788;20.486;2023-08-06T03:25:26;7.43;;;3.95;;
54945;SDS011;40846;44.788;20.486;2023-08-06T03:27:52;9.30;;;4.50;;
54945;SDS011;40846;44.788;20.486;2023-08-06T03:30:19;7.47;;;4.22;;
54945;SDS011;40846;44.788;20.486;2023-08-06T03:32:45;8.60;;;4.32;;
54945;SDS011;40846;44.788;20.486;2023-08-06T03:35:12;6.78;;;4.30;;
54945;SDS011;40846;44.788;20.486;2023-08-06T03:37:38;6.70;;;4.20;;
54945;SDS011;40846;44.788;20.486;2023-08-06T03:40:04;6.22;;;4.07;;
54945;SDS011;40846;44.788;20.486;2023-08-06T03:42:30;5.63;;;3.35;;
54945;SDS011;40846;44.788;20.486;2023-08-06T03:44:56;5.57;;;3.78;;
54945;SDS011;40846;44.788;20.486;2023-08-06T03:47:22;5.57;;;4.13;;
54945;SDS011;40846;44.788;20.486;2023-08-06T03:49:48;9.23;;;4.38;;
54945;SDS011;40846;44.788;20.486;2023-08-06T03:52:14;8.70;;;4.78;;
54945;SDS011;40846;44.788;20.486;2023-08-06T03:54:40;6.20;;;3.60;;
54945;SDS011;40846;44.788;20.486;2023-08-06T03:57:08;8.85;;;4.25;;
54945;SDS011;40846;44.788;20.486;2023-08-06T03:59:34;5.60;;;4.40;;
54945;SDS011;40846;44.788;20.486;2023-08-06T04:02:00;7.05;;;4.45;;
54945;SDS011;40846;44.788;20.486;2023-08-06T04:04:26;6.00;;;3.72;;
54945;SDS011;40846;44.788;20.486;2023-08-06T04:06:52;9.07;;;3.90;;
54945;SDS011;40846;44.788;20.486;2023-08-06T04:09:18;5.43;;;3.90;;
54945;SDS011;40846;44.788;20.486;2023-08-06T04:11:44;9.20;;;3.95;;
54945;SDS011;40846;44.788;20.486;2023-08-06T04:14:10;6.57;;;3.50;;
54945;SDS011;40846;44.788;20.486;2023-08-06T04:16:36;5.10;;;3.97;;
54945;SDS011;40846;44.788;20.486;2023-08-06T04:19:02;5.47;;;3.88;;
54945;SDS011;40846;44.788;20.486;2023-08-06T04:21:28;11.77;;;3.65;;
54945;SDS011;40846;44.788;20.486;2023-08-06T04:23:55;7.13;;;4.20;;
54945;SDS011;40846;44.788;20.486;2023-08-06T04:26:21;7.25;;;4.65;;
54945;SDS011;40846;44.788;20.486;2023-08-06T04:28:48;5.43;;;3.30;;
54945;SDS011;40846;44.788;20.486;2023-08-06T04:31:15;6.22;;;3.47;;
54945;SDS011;40846;44.788;20.486;2023-08-06T04:33:41;6.43;;;3.45;;
54945;SDS011;40846;44.788;20.486;2023-08-06T04:36:07;5.25;;;3.25;;
54945;SDS011;40846;44.788;20.486;2023-08-06T04:38:34;8.95;;;3.63;;
54945;SDS011;40846;44.788;20.486;2023-08-06T04:41:01;7.45;;;4.18;;
54945;SDS011;40846;44.788;20.486;2023-08-06T04:43:28;9.25;;;4.00;;
54945;SDS011;40846;44.788;20.486;2023-08-06T04:45:54;6.47;;;3.50;;
54945;SDS011;40846;44.788;20.486;2023-08-06T04:48:21;7.03;;;3.58;;
54945;SDS011;40846;44.788;20.486;2023-08-06T04:50:48;8.00;;;3.95;;
54945;SDS011;40846;44.788;20.486;2023-08-06T04:53:14;6.15;;;3.10;;
54945;SDS011;40846;44.788;20.486;2023-08-06T04:55:41;6.70;;;3.60;;
54945;SDS011;40846;44.788;20.486;2023-08-06T04:58:08;7.90;;;3.78;;
54945;SDS011;40846;44.788;20.486;2023-08-06T05:00:34;8.23;;;3.83;;
54945;SDS011;40846;44.788;20.486;2023-08-06T05:03:00;6.45;;;2.95;;
54945;SDS011;40846;44.788;20.486;2023-08-06T05:05:27;5.68;;;3.30;;
54945;SDS011;40846;44.788;20.486;2023-08-06T05:07:53;3.92;;;3.10;;
54945;SDS011;40846;44.788;20.486;2023-08-06T05:10:20;6.72;;;3.45;;
54945;SDS011;40846;44.788;20.486;2023-08-06T05:12:46;6.07;;;3.70;;
54945;SDS011;40846;44.788;20.486;2023-08-06T05:15:12;6.57;;;3.47;;
54945;SDS011;40846;44.788;20.486;2023-08-06T05:17:38;6.53;;;3.63;;
54945;SDS011;40846;44.788;20.486;2023-08-06T05:20:04;15.48;;;4.22;;
54945;SDS011;40846;44.788;20.486;2023-08-06T05:22:30;13.57;;;4.53;;
54945;SDS011;40846;44.788;20.486;2023-08-06T05:24:56;8.55;;;5.00;;
54945;SDS011;40846;44.788;20.486;2023-08-06T05:27:22;11.02;;;6.70;;
54945;SDS011;40846;44.788;20.486;2023-08-06T05:29:48;7.80;;;4.72;;
54945;SDS011;40846;44.788;20.486;2023-08-06T05:32:14;11.38;;;5.43;;
54945;SDS011;40846;44.788;20.486;2023-08-06T05:34:40;14.73;;;6.10;;
54945;SDS011;40846;44.788;20.486;2023-08-06T05:37:06;7.32;;;5.72;;
54945;SDS011;40846;44.788;20.486;2023-08-06T05:39:32;10.00;;;6.45;;
54945;SDS011;40846;44.788;20.486;2023-08-06T05:41:59;8.15;;;6.43;;
54945;SDS011;40846;44.788;20.486;2023-08-06T05:44:25;13.07;;;7.63;;
54945;SDS011;40846;44.788;20.486;2023-08-06T05:46:51;7.22;;;5.95;;
54945;SDS011;40846;44.788;20.486;2023-08-06T05:49:18;9.52;;;7.72;;
54945;SDS011;40846;44.788;20.486;2023-08-06T05:51:44;15.90;;;9.25;;
54945;SDS011;40846;44.788;20.486;2023-08-06T05:54:10;12.65;;;8.68;;
54945;SDS011;40846;44.788;20.486;2023-08-06T05:56:36;12.30;;;9.43;;
54945;SDS011;40846;44.788;20.486;2023-08-06T05:59:02;17.80;;;10.48;;
54945;SDS011;40846;44.788;20.486;2023-08-06T06:01:28;16.25;;;11.20;;
54945;SDS011;40846;44.788;20.486;2023-08-06T06:03:54;16.75;;;11.65;;
54945;SDS011;40846;44.788;20.486;2023-08-06T06:06:20;13.82;;;10.27;;
54945;SDS011;40846;44.788;20.486;2023-08-06T06:08:46;12.43;;;10.70;;
54945;SDS011;40846;44.788;20.486;2023-08-06T06:11:12;12.02;;;10.63;;
54945;SDS011;40846;44.788;20.486;2023-08-06T06:13:38;16.55;;;11.85;;
54945;SDS011;40846;44.788;20.486;2023-08-06T06:16:05;16.50;;;12.10;;
54945;SDS011;40846;44.788;20.486;2023-08-06T06:18:31;14.75;;;11.40;;
54945;SDS011;40846;44.788;20.486;2023-08-06T06:20:57;14.43;;;11.85;;
54945;SDS011;40846;44.788;20.486;2023-08-06T06:23:23;18.30;;;11.80;;
54945;SDS011;40846;44.788;20.486;2023-08-06T06:25:49;15.05;;;12.38;;
54945;SDS011;40846;44.788;20.486;2023-08-06T06:28:17;18.15;;;12.88;;
54945;SDS011;40846;44.788;20.486;2023-08-06T06:30:43;18.08;;;13.68;;
54945;SDS011;40846;44.788;20.486;2023-08-06T06:33:09;15.30;;;13.68;;
54945;SDS011;40846;44.788;20.486;2023-08-06T06:35:35;18.80;;;13.90;;
54945;SDS011;40846;44.788;20.486;2023-08-06T06:38:01;17.23;;;12.10;;
54945;SDS011;40846;44.788;20.486;2023-08-06T06:40:27;14.90;;;12.65;;
54945;SDS011;40846;44.788;20.486;2023-08-06T06:42:53;17.63;;;12.82;;
54945;SDS011;40846;44.788;20.486;2023-08-06T06:45:19;15.88;;;11.95;;
54945;SDS011;40846;44.788;20.486;2023-08-06T06:47:45;15.52;;;12.50;;
54945;SDS011;40846;44.788;20.486;2023-08-06T06:50:12;15.20;;;12.30;;
54945;SDS011;40846;44.788;20.486;2023-08-06T06:52:38;14.30;;;10.90;;
54945;SDS011;40846;44.788;20.486;2023-08-06T06:55:04;15.38;;;12.10;;
54945;SDS011;40846;44.788;20.486;2023-08-06T06:57:30;16.95;;;12.15;;
54945;SDS011;40846;44.788;20.486;2023-08-06T06:59:56;13.95;;;11.68;;
54945;SDS011;40846;44.788;20.486;2023-08-06T07:02:22;14.85;;;11.32;;
54945;SDS011;40846;44.788;20.486;2023-08-06T07:04:49;14.48;;;11.25;;
54945;SDS011;40846;44.788;20.486;2023-08-06T07:07:15;14.00;;;10.55;;
54945;SDS011;40846;44.788;20.486;2023-08-06T07:09:41;11.23;;;9.80;;
54945;SDS011;40846;44.788;20.486;2023-08-06T07:12:07;13.73;;;9.75;;
54945;SDS011;40846;44.788;20.486;2023-08-06T07:14:34;11.38;;;9.45;;
54945;SDS011;40846;44.788;20.486;2023-08-06T07:20:03;16.00;;;11.82;;
54945;SDS011;40846;44.788;20.486;2023-08-06T07:22:31;14.13;;;10.93;;
54945;SDS011;40846;44.788;20.486;2023-08-06T07:24:57;13.35;;;10.27;;
54945;SDS011;40846;44.788;20.486;2023-08-06T07:27:23;12.52;;;10.05;;
54945;SDS011;40846;44.788;20.486;2023-08-06T07:29:49;12.57;;;10.48;;
54945;SDS011;40846;44.788;20.486;2023-08-06T07:32:15;14.70;;;10.30;;
54945;SDS011;40846;44.788;20.486;2023-08-06T07:34:41;12.43;;;10.48;;
54945;SDS011;40846;44.788;20.486;2023-08-06T07:37:07;12.57;;;10.13;;
54945;SDS011;40846;44.788;20.486;2023-08-06T07:39:34;15.80;;;10.50;;
54945;SDS011;40846;44.788;20.486;2023-08-06T07:42:00;15.00;;;8.82;;
54945;SDS011;40846;44.788;20.486;2023-08-06T07:44:29;16.40;;;8.50;;
54945;SDS011;40846;44.788;20.486;2023-08-06T07:46:55;11.00;;;8.23;;
54945;SDS011;40846;44.788;20.486;2023-08-06T07:49:21;9.85;;;8.57;;
54945;SDS011;40846;44.788;20.486;2023-08-06T07:51:47;13.32;;;8.65;;
54945;SDS011;40846;44.788;20.486;2023-08-06T07:54:13;10.60;;;7.75;;
54945;SDS011;40846;44.788;20.486;2023-08-06T07:56:39;11.50;;;7.25;;
54945;SDS011;40846;44.788;20.486;2023-08-06T07:59:05;7.72;;;6.55;;
54945;SDS011;40846;44.788;20.486;2023-08-06T08:01:31;11.68;;;6.80;;
54945;SDS011;40846;44.788;20.486;2023-08-06T08:03:57;8.98;;;5.90;;
54945;SDS011;40846;44.788;20.486;2023-08-06T08:06:24;11.52;;;5.60;;
54945;SDS011;40846;44.788;20.486;2023-08-06T08:08:50;9.25;;;4.95;;
54945;SDS011;40846;44.788;20.486;2023-08-06T08:11:17;7.68;;;3.83;;
54945;SDS011;40846;44.788;20.486;2023-08-06T08:13:43;8.50;;;4.03;;
54945;SDS011;40846;44.788;20.486;2023-08-06T08:16:09;9.73;;;3.95;;
54945;SDS011;40846;44.788;20.486;2023-08-06T08:18:35;4.78;;;3.20;;
54945;SDS011;40846;44.788;20.486;2023-08-06T08:21:01;5.60;;;2.80;;
54945;SDS011;40846;44.788;20.486;2023-08-06T08:23:27;5.40;;;2.40;;
54945;SDS011;40846;44.788;20.486;2023-08-06T08:25:52;9.88;;;2.65;;
54945;SDS011;40846;44.788;20.486;2023-08-06T08:28:21;4.70;;;1.73;;
54945;SDS011;40846;44.788;20.486;2023-08-06T08:30:47;6.32;;;2.35;;
54945;SDS011;40846;44.788;20.486;2023-08-06T08:33:13;3.88;;;1.50;;
54945;SDS011;40846;44.788;20.486;2023-08-06T08:35:38;2.92;;;1.85;;
54945;SDS011;40846;44.788;20.486;2023-08-06T08:38:05;4.93;;;1.92;;
54945;SDS011;40846;44.788;20.486;2023-08-06T08:40:31;5.38;;;2.17;;
54945;SDS011;40846;44.788;20.486;2023-08-06T08:43:01;4.15;;;1.67;;
54945;SDS011;40846;44.788;20.486;2023-08-06T08:45:29;2.97;;;1.52;;
54945;SDS011;40846;44.788;20.486;2023-08-06T08:47:55;3.42;;;1.85;;
54945;SDS011;40846;44.788;20.486;2023-08-06T08:50:21;3.67;;;1.45;;
54945;SDS011;40846;44.788;20.486;2023-08-06T08:52:47;3.72;;;1.40;;
54945;SDS011;40846;44.788;20.486;2023-08-06T08:55:15;1.65;;;1.10;;
54945;SDS011;40846;44.788;20.486;2023-08-06T08:57:42;4.20;;;1.33;;
54945;SDS011;40846;44.788;20.486;2023-08-06T09:00:08;4.30;;;1.40;;
54945;SDS011;40846;44.788;20.486;2023-08-06T09:02:34;3.65;;;1.58;;
54945;SDS011;40846;44.788;20.486;2023-08-06T09:05:03;2.25;;;1.40;;
54945;SDS011;40846;44.788;20.486;2023-08-06T09:07:38;2.78;;;1.45;;
54945;SDS011;40846;44.788;20.486;2023-08-06T09:10:10;4.97;;;2.22;;
54945;SDS011;40846;44.788;20.486;2023-08-06T09:12:38;7.32;;;1.85;;
54945;SDS011;40846;44.788;20.486;2023-08-06T09:15:05;4.93;;;1.52;;
54945;SDS011;40846;44.788;20.486;2023-08-06T09:17:31;6.28;;;3.10;;
54945;SDS011;40846;44.788;20.486;2023-08-06T09:19:57;4.43;;;1.58;;
54945;SDS011;40846;44.788;20.486;2023-08-06T09:22:23;2.38;;;1.52;;
54945;SDS011;40846;44.788;20.486;2023-08-06T09:24:49;4.60;;;1.40;;
54945;SDS011;40846;44.788;20.486;2023-08-06T09:27:15;4.13;;;1.80;;
54945;SDS011;40846;44.788;20.486;2023-08-06T09:29:43;4.90;;;1.90;;
54945;SDS011;40846;44.788;20.486;2023-08-06T09:32:10;8.45;;;2.22;;
54945;SDS011;40846;44.788;20.486;2023-08-06T09:34:38;2.97;;;1.60;;
54945;SDS011;40846;44.788;20.486;2023-08-06T09:37:05;2.80;;;1.55;;
54945;SDS011;40846;44.788;20.486;2023-08-06T09:39:34;4.68;;;2.05;;
54945;SDS011;40846;44.788;20.486;2023-08-06T09:42:00;2.25;;;1.60;;
54945;SDS011;40846;44.788;20.486;2023-08-06T09:44:27;4.82;;;1.65;;
54945;SDS011;40846;44.788;20.486;2023-08-06T09:46:55;3.83;;;1.85;;
54945;SDS011;40846;44.788;20.486;2023-08-06T09:51:58;3.92;;;1.83;;
54945;SDS011;40846;44.788;20.486;2023-08-06T09:54:25;1.77;;;1.20;;
54945;SDS011;40846;44.788;20.486;2023-08-06T09:56:55;10.18;;;1.83;;
54945;SDS011;40846;44.788;20.486;2023-08-06T09:59:24;5.45;;;2.00;;
54945;SDS011;40846;44.788;20.486;2023-08-06T10:01:50;2.67;;;1.60;;
54945;SDS011;40846;44.788;20.486;2023-08-06T10:04:17;4.00;;;1.92;;
54945;SDS011;40846;44.788;20.486;2023-08-06T10:06:43;3.13;;;1.88;;
54945;SDS011;40846;44.788;20.486;2023-08-06T10:09:12;3.15;;;1.77;;
54945;SDS011;40846;44.788;20.486;2023-08-06T10:11:38;3.90;;;1.70;;
54945;SDS011;40846;44.788;20.486;2023-08-06T10:16:36;4.40;;;1.67;;
54945;SDS011;40846;44.788;20.486;2023-08-06T10:19:03;6.38;;;1.60;;
54945;SDS011;40846;44.788;20.486;2023-08-06T10:21:30;5.32;;;1.48;;
54945;SDS011;40846;44.788;20.486;2023-08-06T10:23:57;3.92;;;1.42;;
54945;SDS011;40846;44.788;20.486;2023-08-06T10:26:29;4.35;;;1.63;;
54945;SDS011;40846;44.788;20.486;2023-08-06T10:28:55;4.57;;;2.03;;
54945;SDS011;40846;44.788;20.486;2023-08-06T10:34:22;5.88;;;1.70;;
54945;SDS011;40846;44.788;20.486;2023-08-06T10:36:48;2.70;;;1.70;;
54945;SDS011;40846;44.788;20.486;2023-08-06T10:39:14;6.80;;;1.17;;
54945;SDS011;40846;44.788;20.486;2023-08-06T10:41:42;2.63;;;1.30;;
54945;SDS011;40846;44.788;20.486;2023-08-06T10:44:09;2.00;;;1.23;;
54945;SDS011;40846;44.788;20.486;2023-08-06T10:46:35;2.33;;;1.17;;
54945;SDS011;40846;44.788;20.486;2023-08-06T10:49:02;2.72;;;1.40;;
54945;SDS011;40846;44.788;20.486;2023-08-06T10:51:28;3.42;;;1.55;;
54945;SDS011;40846;44.788;20.486;2023-08-06T10:53:54;2.88;;;1.60;;
54945;SDS011;40846;44.788;20.486;2023-08-06T10:56:21;2.22;;;1.38;;
54945;SDS011;40846;44.788;20.486;2023-08-06T10:58:48;7.40;;;1.75;;
54945;SDS011;40846;44.788;20.486;2023-08-06T11:01:15;3.25;;;1.80;;
54945;SDS011;40846;44.788;20.486;2023-08-06T11:03:42;3.05;;;1.27;;
54945;SDS011;40846;44.788;20.486;2023-08-06T11:06:08;4.50;;;1.40;;
54945;SDS011;40846;44.788;20.486;2023-08-06T11:08:35;3.00;;;1.70;;
54945;SDS011;40846;44.788;20.486;2023-08-06T11:11:09;1.58;;;1.08;;
54945;SDS011;40846;44.788;20.486;2023-08-06T11:13:42;4.30;;;1.30;;
54945;SDS011;40846;44.788;20.486;2023-08-06T11:16:11;7.20;;;1.60;;
54945;SDS011;40846;44.788;20.486;2023-08-06T11:18:46;3.90;;;1.40;;
54945;SDS011;40846;44.788;20.486;2023-08-06T11:21:12;3.67;;;1.60;;
54945;SDS011;40846;44.788;20.486;2023-08-06T11:23:38;1.95;;;1.25;;
54945;SDS011;40846;44.788;20.486;2023-08-06T11:26:05;3.33;;;1.60;;
54945;SDS011;40846;44.788;20.486;2023-08-06T11:28:31;3.85;;;1.70;;
54945;SDS011;40846;44.788;20.486;2023-08-06T11:30:57;3.58;;;1.40;;
54945;SDS011;40846;44.788;20.486;2023-08-06T11:33:26;2.28;;;1.25;;
54945;SDS011;40846;44.788;20.486;2023-08-06T11:35:53;3.67;;;1.45;;
54945;SDS011;40846;44.788;20.486;2023-08-06T11:38:21;8.05;;;1.30;;
54945;SDS011;40846;44.788;20.486;2023-08-06T11:40:49;7.35;;;1.60;;
54945;SDS011;40846;44.788;20.486;2023-08-06T11:43:17;5.57;;;1.80;;
54945;SDS011;40846;44.788;20.486;2023-08-06T11:45:50;2.10;;;1.30;;
54945;SDS011;40846;44.788;20.486;2023-08-06T11:48:16;3.70;;;1.30;;
54945;SDS011;40846;44.788;20.486;2023-08-06T11:50:43;2.42;;;1.27;;
54945;SDS011;40846;44.788;20.486;2023-08-06T11:53:11;3.13;;;1.38;;
54945;SDS011;40846;44.788;20.486;2023-08-06T11:55:38;2.78;;;1.30;;
54945;SDS011;40846;44.788;20.486;2023-08-06T11:58:03;3.95;;;2.17;;
54945;SDS011;40846;44.788;20.486;2023-08-06T12:00:30;2.67;;;1.45;;
54945;SDS011;40846;44.788;20.486;2023-08-06T12:02:55;4.22;;;1.13;;
54945;SDS011;40846;44.788;20.486;2023-08-06T12:05:22;2.65;;;1.20;;
54945;SDS011;40846;44.788;20.486;2023-08-06T12:07:52;2.75;;;1.20;;
54945;SDS011;40846;44.788;20.486;2023-08-06T12:10:20;7.10;;;1.30;;
54945;SDS011;40846;44.788;20.486;2023-08-06T12:12:47;2.67;;;1.15;;
54945;SDS011;40846;44.788;20.486;2023-08-06T12:15:13;1.85;;;1.27;;
54945;SDS011;40846;44.788;20.486;2023-08-06T12:17:39;3.35;;;1.15;;
54945;SDS011;40846;44.788;20.486;2023-08-06T12:20:05;3.13;;;1.10;;
54945;SDS011;40846;44.788;20.486;2023-08-06T12:22:32;2.63;;;1.30;;
54945;SDS011;40846;44.788;20.486;2023-08-06T12:25:04;3.03;;;1.40;;
54945;SDS011;40846;44.788;20.486;2023-08-06T12:27:33;6.15;;;1.20;;
54945;SDS011;40846;44.788;20.486;2023-08-06T12:30:09;4.75;;;1.27;;
54945;SDS011;40846;44.788;20.486;2023-08-06T12:32:36;3.03;;;1.40;;
54945;SDS011;40846;44.788;20.486;2023-08-06T12:35:02;3.33;;;1.15;;
54945;SDS011;40846;44.788;20.486;2023-08-06T12:37:28;2.90;;;1.17;;
54945;SDS011;40846;44.788;20.486;2023-08-06T12:39:54;4.00;;;1.20;;
54945;SDS011;40846;44.788;20.486;2023-08-06T12:42:20;3.97;;;1.50;;
54945;SDS011;40846;44.788;20.486;2023-08-06T12:44:47;3.03;;;1.10;;
54945;SDS011;40846;44.788;20.486;2023-08-06T12:47:14;1.85;;;0.85;;
54945;SDS011;40846;44.788;20.486;2023-08-06T12:49:40;2.35;;;0.93;;
54945;SDS011;40846;44.788;20.486;2023-08-06T12:52:06;1.48;;;0.93;;
54945;SDS011;40846;44.788;20.486;2023-08-06T12:54:32;4.90;;;1.10;;
54945;SDS011;40846;44.788;20.486;2023-08-06T12:57:01;3.00;;;1.20;;
54945;SDS011;40846;44.788;20.486;2023-08-06T12:59:27;4.50;;;1.27;;
54945;SDS011;40846;44.788;20.486;2023-08-06T13:01:54;4.18;;;1.38;;
54945;SDS011;40846;44.788;20.486;2023-08-06T13:04:20;4.80;;;1.90;;
54945;SDS011;40846;44.788;20.486;2023-08-06T13:06:46;3.10;;;1.35;;
54945;SDS011;40846;44.788;20.486;2023-08-06T13:09:12;4.65;;;1.85;;
54945;SDS011;40846;44.788;20.486;2023-08-06T13:11:41;6.07;;;1.92;;
54945;SDS011;40846;44.788;20.486;2023-08-06T13:14:11;7.28;;;1.85;;
54945;SDS011;40846;44.788;20.486;2023-08-06T13:16:38;8.95;;;1.65;;
54945;SDS011;40846;44.788;20.486;2023-08-06T13:19:05;4.47;;;1.30;;
54945;SDS011;40846;44.788;20.486;2023-08-06T13:21:32;2.67;;;1.40;;
54945;SDS011;40846;44.788;20.486;2023-08-06T13:23:59;2.88;;;1.30;;
54945;SDS011;40846;44.788;20.486;2023-08-06T13:26:25;5.43;;;1.63;;
54945;SDS011;40846;44.788;20.486;2023-08-06T13:28:52;6.40;;;2.78;;
54945;SDS011;40846;44.788;20.486;2023-08-06T13:31:18;4.60;;;3.50;;
54945;SDS011;40846;44.788;20.486;2023-08-06T13:33:44;5.70;;;3.47;;
54945;SDS011;40846;44.788;20.486;2023-08-06T13:36:10;3.35;;;2.50;;
54945;SDS011;40846;44.788;20.486;2023-08-06T13:38:36;4.43;;;2.70;;
54945;SDS011;40846;44.788;20.486;2023-08-06T13:41:02;4.35;;;2.38;;
54945;SDS011;40846;44.788;20.486;2023-08-06T13:43:28;3.63;;;2.42;;
54945;SDS011;40846;44.788;20.486;2023-08-06T13:45:54;6.30;;;2.20;;
54945;SDS011;40846;44.788;20.486;2023-08-06T13:48:20;3.67;;;2.55;;
54945;SDS011;40846;44.788;20.486;2023-08-06T13:50:46;4.72;;;2.53;;
54945;SDS011;40846;44.788;20.486;2023-08-06T13:53:13;3.92;;;2.50;;
54945;SDS011;40846;44.788;20.486;2023-08-06T13:55:39;5.15;;;2.50;;
54945;SDS011;40846;44.788;20.486;2023-08-06T13:58:05;7.60;;;2.30;;
54945;SDS011;40846;44.788;20.486;2023-08-06T14:00:31;6.20;;;2.80;;
54945;SDS011;40846;44.788;20.486;2023-08-06T14:02:57;6.30;;;3.13;;
54945;SDS011;40846;44.788;20.486;2023-08-06T14:05:23;4.88;;;2.88;;
54945;SDS011;40846;44.788;20.486;2023-08-06T14:07:49;4.10;;;2.80;;
54945;SDS011;40846;44.788;20.486;2023-08-06T14:10:16;3.95;;;2.65;;
54945;SDS011;40846;44.788;20.486;2023-08-06T14:12:42;8.02;;;2.72;;
54945;SDS011;40846;44.788;20.486;2023-08-06T14:15:08;5.20;;;2.38;;
54945;SDS011;40846;44.788;20.486;2023-08-06T14:17:34;6.40;;;1.77;;
54945;SDS011;40846;44.788;20.486;2023-08-06T14:20:00;9.30;;;2.80;;
54945;SDS011;40846;44.788;20.486;2023-08-06T14:22:29;10.98;;;2.67;;
54945;SDS011;40846;44.788;20.486;2023-08-06T14:24:56;16.02;;;4.00;;
54945;SDS011;40846;44.788;20.486;2023-08-06T14:27:22;15.13;;;4.65;;
54945;SDS011;40846;44.788;20.486;2023-08-06T14:29:48;10.63;;;3.30;;
54945;SDS011;40846;44.788;20.486;2023-08-06T14:32:13;9.23;;;3.50;;
54945;SDS011;40846;44.788;20.486;2023-08-06T14:34:42;8.38;;;2.90;;
54945;SDS011;40846;44.788;20.486;2023-08-06T14:37:11;7.53;;;2.13;;
54945;SDS011;40846;44.788;20.486;2023-08-06T14:39:37;4.93;;;2.20;;
54945;SDS011;40846;44.788;20.486;2023-08-06T14:42:04;7.38;;;2.10;;